createdAt,value
2023-04-13T00:04:58.555Z,74.70
2023-04-13T00:10:03.984Z,69.18
2023-04-13T00:15:10.696Z,55.65
2023-04-13T00:20:15.820Z,72.18
2023-04-13T00:25:20.179Z,78.35
2023-04-13T00:30:25.588Z,63.97
2023-04-13T00:35:29.478Z,55.13
2023-04-13T00:40:37.824Z,61.65
2023-04-13T00:45:43.493Z,58.45
2023-04-13T00:50:48.475Z,63.33
2023-04-13T00:55:53.326Z,59.97
2023-04-13T01:00:58.697Z,58.40
2023-04-13T01:11:21.044Z,65.25
2023-04-13T01:16:32.265Z,53.63
2023-04-13T01:21:40.686Z,71.93
2023-04-13T01:26:54.589Z,78.13
2023-04-13T01:32:02.906Z,57.35
2023-04-13T01:37:09.132Z,57.72
2023-04-13T01:42:13.525Z,50.73
2023-04-13T01:47:25.701Z,47.05
2023-04-13T01:52:44.683Z,50.15
2023-04-13T01:57:55.152Z,42.97
2023-04-13T02:03:01.897Z,62.63
2023-04-13T02:08:07.529Z,56.67
2023-04-13T02:13:16.179Z,81.68
2023-04-13T02:18:25.812Z,39.22
2023-04-13T02:23:31.510Z,45.25
2023-04-13T02:28:36.247Z,30.73
2023-04-13T02:33:43.785Z,51.60
2023-04-13T02:38:47.880Z,38.55
2023-04-13T02:44:01.743Z,45.92
2023-04-13T02:49:13.488Z,50.97
2023-04-13T02:54:28.613Z,113.30
2023-04-13T02:59:34.035Z,94.82
2023-04-13T03:04:43.356Z,39.45
2023-04-13T03:09:53.705Z,131.23
2023-04-13T03:15:03.797Z,94.13
2023-04-13T03:20:13.427Z,42.40
2023-04-13T03:25:22.588Z,31.95
2023-04-13T03:30:26.788Z,30.98
2023-04-13T03:35:36.181Z,71.68
2023-04-13T03:40:43.497Z,38.60
2023-04-13T03:45:48.306Z,41.43
2023-04-13T03:50:56.316Z,40.90
2023-04-13T03:56:07.201Z,51.05
2023-04-13T04:01:12.282Z,93.82
2023-04-13T04:06:27.234Z,45.22
2023-04-13T04:11:43.552Z,30.30
2023-04-13T04:16:49.200Z,30.45
2023-04-13T04:21:58.074Z,36.53
2023-04-13T04:27:07.820Z,34.13
2023-04-13T04:32:12.960Z,28.70
2023-04-13T04:37:22.878Z,27.92
2023-04-13T04:42:46.393Z,24.95
2023-04-13T04:48:06.395Z,26.92
2023-04-13T04:53:15.043Z,30.98
2023-04-13T04:58:22.393Z,28.38
2023-04-13T05:03:34.580Z,119.03
2023-04-13T05:08:58.057Z,26.52
2023-04-13T05:14:04.155Z,24.73
2023-04-13T05:19:09.767Z,28.25
2023-04-13T05:24:28.008Z,37.25
2023-04-13T05:29:35.570Z,31.05
2023-04-13T05:34:39.921Z,15.65
2023-04-13T05:39:56.569Z,19.65
2023-04-13T05:45:10.655Z,16.05
2023-04-13T05:50:26.065Z,22.45
2023-04-13T05:55:31.523Z,32.25
2023-04-13T06:00:40.117Z,28.90
2023-04-13T06:05:49.538Z,22.58
2023-04-13T06:10:54.948Z,23.30
2023-04-13T06:15:59.134Z,25.58
2023-04-13T06:21:03.729Z,20.25
2023-04-13T06:26:12.469Z,19.45
2023-04-13T06:31:27.740Z,15.07
2023-04-13T06:36:35.034Z,12.05
2023-04-13T06:41:41.615Z,20.33
2023-04-13T06:46:53.507Z,13.77
2023-04-13T06:51:59.464Z,15.75
2023-04-13T06:57:05.297Z,14.48
2023-04-13T07:02:10.788Z,15.73
2023-04-13T07:12:21.922Z,9.95
2023-04-13T07:17:26.398Z,12.18
2023-04-13T07:22:33.822Z,11.02
2023-04-13T07:27:39.453Z,12.65
2023-04-13T07:32:43.713Z,13.75
2023-04-13T07:37:52.168Z,14.35
2023-04-13T07:42:59.581Z,16.20
2023-04-13T07:48:06.915Z,12.45
2023-04-13T07:53:13.357Z,11.25
2023-04-13T07:58:22.005Z,16.10
2023-04-13T08:03:26.423Z,12.15
2023-04-13T08:08:30.715Z,13.02
2023-04-13T08:13:36.875Z,17.30
2023-04-13T08:18:41.433Z,8.90
2023-04-13T08:28:53.948Z,7.55
2023-04-13T08:33:58.169Z,10.55
2023-04-13T08:39:02.944Z,9.43
2023-04-13T08:44:10.194Z,12.45
2023-04-13T08:49:17.807Z,9.10
2023-04-13T08:54:46.385Z,7.85
2023-04-13T09:00:11.567Z,9.27
2023-04-13T09:05:17.078Z,8.75
2023-04-13T09:10:27.727Z,6.80
2023-04-13T09:15:33.853Z,8.10
2023-04-13T09:21:01.690Z,8.35
2023-04-13T09:26:07.351Z,9.13
2023-04-13T09:36:21.844Z,8.75
2023-04-13T09:41:33.607Z,7.97
2023-04-13T09:46:39.322Z,8.32
2023-04-13T09:56:48.352Z,7.30
2023-04-13T10:01:54.908Z,15.65
2023-04-13T10:06:59.461Z,9.93
2023-04-13T10:12:06.207Z,13.00
2023-04-13T10:17:36.256Z,5.30
2023-04-13T10:22:47.323Z,9.70
2023-04-13T10:27:59.275Z,6.10
2023-04-13T10:33:08.398Z,6.00
2023-04-13T10:38:15.335Z,7.75
2023-04-13T10:43:28.522Z,3.25
2023-04-13T10:48:34.478Z,4.70
2023-04-13T10:53:38.647Z,7.25
2023-04-13T10:58:43.398Z,7.03
2023-04-13T11:04:01.259Z,6.27
2023-04-13T11:09:13.151Z,5.50
2023-04-13T11:14:39.496Z,6.25
2023-04-13T11:19:50.585Z,3.75
2023-04-13T11:24:55.080Z,5.07
2023-04-13T11:30:05.418Z,3.53
2023-04-13T11:35:27.306Z,4.45
2023-04-13T11:40:31.731Z,4.40
2023-04-13T11:45:35.782Z,5.90
2023-04-13T11:50:41.844Z,4.82
2023-04-13T11:55:53.452Z,4.05
2023-04-13T12:01:03.284Z,5.15
2023-04-13T12:06:10.671Z,3.63
2023-04-13T12:11:40.487Z,4.35
2023-04-13T12:21:56.748Z,6.82
2023-04-13T12:32:15.096Z,9.73
2023-04-13T12:37:20.741Z,3.10
2023-04-13T12:42:24.640Z,4.72
2023-04-13T12:47:28.625Z,6.57
2023-04-13T12:52:34.231Z,9.77
2023-04-13T12:57:39.788Z,3.08
2023-04-13T13:02:44.324Z,3.58
2023-04-13T13:07:49.740Z,5.20
2023-04-13T13:12:54.352Z,6.90
2023-04-13T13:18:00.941Z,3.00
2023-04-13T13:23:06.828Z,4.53
2023-04-13T13:28:14.519Z,3.08
2023-04-13T13:33:19.908Z,10.80
2023-04-13T13:38:25.754Z,3.63
2023-04-13T13:43:29.974Z,3.78
2023-04-13T13:48:34.276Z,2.47
2023-04-13T13:54:15.352Z,4.10
2023-04-13T13:59:19.586Z,4.57
2023-04-13T14:04:23.636Z,5.25
2023-04-13T14:09:30.206Z,3.42
2023-04-13T14:14:36.376Z,4.07
2023-04-13T14:19:40.511Z,3.45
2023-04-13T14:24:46.550Z,3.40
2023-04-13T14:29:50.568Z,5.05
2023-04-13T14:34:54.892Z,2.83
2023-04-13T14:40:00.447Z,4.13
2023-04-13T14:45:05.377Z,7.43
2023-04-13T14:50:15.825Z,2.90
2023-04-13T14:55:22.982Z,3.22
2023-04-13T15:00:39.055Z,6.22
2023-04-13T15:05:46.257Z,5.97
2023-04-13T15:10:52.057Z,9.02
2023-04-13T15:15:56.800Z,9.15
2023-04-13T15:21:03.290Z,6.93
2023-04-13T15:26:09.038Z,6.93
2023-04-13T15:31:15.844Z,6.30
2023-04-13T15:36:19.963Z,9.23
2023-04-13T15:41:27.668Z,6.97
2023-04-13T15:46:33.565Z,7.75
2023-04-13T15:51:45.360Z,7.43
2023-04-13T15:56:51.678Z,7.15
2023-04-13T16:01:55.761Z,7.05
2023-04-13T16:12:08.730Z,11.45
2023-04-13T16:17:13.324Z,13.05
2023-04-13T16:22:18.058Z,14.83
2023-04-13T16:27:23.616Z,14.98
2023-04-13T16:32:27.920Z,18.73
2023-04-13T16:37:32.273Z,18.92
2023-04-13T16:42:38.030Z,15.45
2023-04-13T16:47:42.411Z,15.77
2023-04-13T16:52:50.325Z,19.42
2023-04-13T16:57:57.523Z,15.02
2023-04-13T17:03:02.458Z,9.57
2023-04-13T17:08:09.927Z,11.52
2023-04-13T17:13:15.457Z,11.45
2023-04-13T17:23:24.946Z,11.10
2023-04-13T17:28:30.819Z,15.50
2023-04-13T17:33:35.447Z,20.27
2023-04-13T17:38:40.566Z,23.58
2023-04-13T17:44:15.844Z,26.65
2023-04-13T17:49:22.918Z,29.52
2023-04-13T17:54:27.440Z,27.98
2023-04-13T17:59:33.406Z,24.27
2023-04-13T18:04:37.757Z,16.83
2023-04-13T18:09:42.190Z,17.42
2023-04-13T18:14:47.956Z,20.90
2023-04-13T18:20:01.008Z,20.77
2023-04-13T18:25:06.411Z,23.30
2023-04-13T18:30:13.438Z,24.65
2023-04-13T18:35:17.842Z,26.98
2023-04-13T18:40:22.081Z,26.48
2023-04-13T18:45:27.773Z,27.35
2023-04-13T18:50:32.042Z,23.45
2023-04-13T18:55:36.381Z,25.80
2023-04-13T19:00:42.156Z,24.20
2023-04-13T19:10:50.589Z,28.35
2023-04-13T19:15:57.800Z,31.63
2023-04-13T19:21:02.721Z,32.45
2023-04-13T19:26:07.006Z,30.40
2023-04-13T19:31:13.117Z,40.13
2023-04-13T19:36:17.297Z,34.25
2023-04-13T19:41:21.372Z,48.08
2023-04-13T19:46:29.462Z,37.45
2023-04-13T19:51:33.693Z,36.72
2023-04-13T19:56:38.108Z,51.53
2023-04-13T20:01:46.113Z,45.00
2023-04-13T20:06:50.538Z,78.40
2023-04-13T20:11:54.837Z,58.58
2023-04-13T20:17:00.459Z,92.03
2023-04-13T20:27:10.250Z,50.10
2023-04-13T20:32:16.047Z,49.17
2023-04-13T20:37:20.426Z,45.38
2023-04-13T20:42:25.040Z,44.42
2023-04-13T20:47:32.209Z,39.28
2023-04-13T20:52:36.819Z,43.95
2023-04-13T20:57:44.276Z,50.90
2023-04-13T21:02:50.207Z,108.78
2023-04-13T21:07:56.902Z,88.03
2023-04-13T21:13:01.747Z,60.00
2023-04-13T21:18:07.342Z,78.72
2023-04-13T21:23:11.923Z,102.78
2023-04-13T21:28:15.929Z,50.20
2023-04-13T21:33:21.512Z,48.13
2023-04-13T21:38:25.659Z,63.22
2023-04-13T21:43:29.803Z,68.88
2023-04-13T21:48:35.171Z,101.15
2023-04-13T21:53:40.179Z,80.82
2023-04-13T21:58:45.432Z,56.27
2023-04-13T22:03:53.490Z,56.65
2023-04-13T22:08:58.115Z,50.30
2023-04-13T22:14:02.225Z,52.88
2023-04-13T22:19:07.516Z,57.22
2023-04-13T22:24:12.810Z,71.68
2023-04-13T22:29:16.964Z,54.92
2023-04-13T22:34:22.747Z,56.63
2023-04-13T22:39:26.719Z,57.92
2023-04-13T22:44:34.169Z,57.00
2023-04-13T22:49:39.516Z,54.58
2023-04-13T22:54:43.503Z,59.17
2023-04-13T22:59:47.649Z,61.30
2023-04-13T23:04:52.996Z,54.40
2023-04-13T23:09:57.171Z,47.63
2023-04-13T23:15:01.124Z,42.38
2023-04-13T23:20:08.173Z,44.92
2023-04-13T23:25:12.280Z,37.15
2023-04-13T23:30:16.476Z,44.50
2023-04-13T23:35:21.912Z,38.35
2023-04-13T23:40:26.013Z,43.05
2023-04-13T23:45:30.102Z,55.53
2023-04-13T23:50:35.388Z,83.93
2023-04-13T23:55:39.340Z,49.10
